Time;durP1;ratioP1;P1;durP2;ratioP2;P2;SDS_P1;SDS_P2;PMS_P1;PMS_P2;Temp;Humidity;BMP_temperature;BMP_pressure;BME280_temperature;BME280_humidity;BME280_pressure;Samples;Min_cycle;Max_cycle;Signal;HPM_P1;HPM_P2
2022/10/22 00:00:16;;;;;;;1.50;0.60;;;12.00;99.90;;;;;;5095738;28;20191;-68
2022/10/22 00:02:42;;;;;;;1.20;0.50;;;12.00;99.90;;;;;;5109725;28;20183;-68
2022/10/22 00:05:09;;;;;;;1.90;0.77;;;11.90;99.90;;;;;;5105493;28;20457;-68
2022/10/22 00:07:34;;;;;;;1.63;0.60;;;11.90;99.90;;;;;;5111855;28;20194;-67
2022/10/22 00:10:00;;;;;;;3.20;0.70;;;11.90;99.90;;;;;;5095587;28;20443;-68
2022/10/22 00:12:26;;;;;;;3.30;0.43;;;11.90;99.90;;;;;;5104464;28;20229;-67
2022/10/22 00:14:52;;;;;;;1.97;0.73;;;11.90;99.90;;;;;;5103170;28;20628;-67
2022/10/22 00:17:18;;;;;;;1.60;0.80;;;12.00;99.90;;;;;;5104978;28;20446;-67
2022/10/22 00:19:44;;;;;;;1.70;0.60;;;11.90;99.90;;;;;;5106362;28;20190;-68
2022/10/22 00:22:11;;;;;;;1.23;0.57;;;11.90;99.90;;;;;;5103012;28;21010;-67
2022/10/22 00:24:37;;;;;;;1.40;0.60;;;11.90;99.90;;;;;;5100139;28;20273;-69
2022/10/22 00:27:05;;;;;;;1.23;0.50;;;11.90;99.90;;;;;;5103909;28;20422;-68
2022/10/22 00:29:31;;;;;;;2.90;1.37;;;12.00;99.90;;;;;;5101082;28;20479;-68
2022/10/22 00:31:57;;;;;;;5.83;1.07;;;12.00;99.90;;;;;;5101907;28;20901;-69
2022/10/22 00:34:22;;;;;;;1.60;0.90;;;12.00;99.90;;;;;;5111234;28;20187;-68
2022/10/22 00:36:49;;;;;;;1.20;0.50;;;12.00;99.90;;;;;;5106658;28;20620;-68
2022/10/22 00:39:17;;;;;;;1.40;0.50;;;12.00;99.90;;;;;;5114472;28;20274;-68
2022/10/22 00:41:44;;;;;;;1.80;0.50;;;12.00;99.90;;;;;;5108590;28;20426;-68
2022/10/22 00:44:47;;;;;;;1.10;0.50;;;11.90;99.90;;;;;;5115579;28;20916;-68
2022/10/22 00:47:14;;;;;;;1.43;0.70;;;12.00;99.90;;;;;;5112160;28;20803;-68
2022/10/22 00:49:41;;;;;;;2.20;0.80;;;12.00;99.90;;;;;;5114756;28;20422;-68
2022/10/22 00:52:07;;;;;;;1.73;0.50;;;12.00;99.90;;;;;;5111749;28;20441;-68
2022/10/22 00:54:33;;;;;;;1.20;0.60;;;12.10;99.90;;;;;;5102551;27;20453;-68
2022/10/22 00:57:00;;;;;;;1.33;0.63;;;12.00;99.90;;;;;;5112463;28;20437;-68
2022/10/22 00:59:26;;;;;;;2.10;0.80;;;12.00;99.90;;;;;;5094740;28;20434;-68
2022/10/22 01:01:52;;;;;;;1.30;0.60;;;12.00;99.90;;;;;;5102091;28;20452;-68
2022/10/22 01:04:19;;;;;;;1.43;0.80;;;12.00;99.90;;;;;;5105399;28;20934;-69
2022/10/22 01:06:46;;;;;;;1.73;0.80;;;11.90;99.90;;;;;;5108562;28;20255;-69
2022/10/22 01:09:28;;;;;;;4.30;0.80;;;12.00;99.90;;;;;;5094877;28;20505;-69
2022/10/22 01:12:25;;;;;;;1.93;0.80;;;12.00;99.90;;;;;;5106049;27;20434;-69
2022/10/22 01:15:15;;;;;;;2.10;0.70;;;11.90;99.90;;;;;;5107823;28;20434;-70
2022/10/22 01:17:41;;;;;;;1.20;0.53;;;11.90;99.90;;;;;;5110398;28;20464;-70
2022/10/22 01:20:34;;;;;;;1.27;0.60;;;12.00;99.90;;;;;;5114202;28;20486;-69
2022/10/22 01:23:30;;;;;;;1.60;0.63;;;11.90;99.90;;;;;;5104877;28;20188;-69
2022/10/22 01:26:01;;;;;;;1.80;0.90;;;11.90;99.90;;;;;;5112185;28;20464;-69
2022/10/22 01:29:13;;;;;;;1.20;0.50;;;11.90;99.90;;;;;;5110073;28;20488;-69
2022/10/22 01:31:51;;;;;;;1.40;0.60;;;11.90;99.90;;;;;;5029772;28;20464;-69
2022/10/22 01:34:18;;;;;;;1.20;0.53;;;12.00;99.90;;;;;;5109740;28;20493;-69
2022/10/22 01:36:45;;;;;;;1.20;0.53;;;11.90;99.90;;;;;;5112880;28;20442;-69
2022/10/22 01:39:14;;;;;;;1.20;0.50;;;11.90;99.90;;;;;;5114564;28;20474;-69
2022/10/22 01:41:44;;;;;;;2.57;1.00;;;11.90;99.90;;;;;;5106497;28;20445;-68
2022/10/22 01:44:29;;;;;;;1.20;0.60;;;11.90;99.90;;;;;;5104699;28;20886;-69
2022/10/22 01:47:26;;;;;;;1.90;0.93;;;11.80;99.90;;;;;;5106281;28;20458;-69
2022/10/22 01:50:03;;;;;;;1.53;0.70;;;11.80;99.90;;;;;;5104164;28;20501;-70
2022/10/22 01:52:29;;;;;;;1.30;0.73;;;11.80;99.90;;;;;;5101591;28;20748;-70
2022/10/22 01:55:07;;;;;;;1.10;0.50;;;11.80;99.90;;;;;;5114202;28;20427;-69
2022/10/22 01:57:45;;;;;;;1.20;0.53;;;11.80;99.90;;;;;;5103955;28;20180;-70
2022/10/22 02:00:13;;;;;;;1.60;0.57;;;11.80;99.90;;;;;;5096033;28;20434;-70
2022/10/22 02:02:48;;;;;;;2.00;0.80;;;11.80;99.90;;;;;;5108061;28;20976;-70
2022/10/22 02:05:41;;;;;;;1.40;0.60;;;11.80;99.90;;;;;;5097675;27;20465;-70
2022/10/22 02:08:29;;;;;;;2.00;0.70;;;11.80;99.90;;;;;;5095125;27;20456;-70
2022/10/22 02:10:57;;;;;;;1.37;0.60;;;11.80;99.90;;;;;;5110308;28;20465;-69
2022/10/22 02:13:35;;;;;;;2.00;0.80;;;11.70;99.90;;;;;;5101482;28;20894;-69
2022/10/22 02:16:03;;;;;;;1.33;0.53;;;11.70;99.90;;;;;;5096018;28;20445;-69
2022/10/22 02:18:31;;;;;;;1.30;0.60;;;11.70;99.90;;;;;;5103870;28;20418;-70
2022/10/22 02:20:58;;;;;;;1.13;0.50;;;11.70;99.90;;;;;;5111556;28;20430;-70
2022/10/22 02:23:25;;;;;;;1.20;0.50;;;11.70;99.90;;;;;;5108898;28;20508;-71
2022/10/22 02:26:08;;;;;;;1.50;0.57;;;11.70;99.90;;;;;;5110072;28;20453;-71
2022/10/22 02:29:05;;;;;;;1.77;0.80;;;11.70;99.90;;;;;;5110489;28;20454;-70
2022/10/22 02:31:34;;;;;;;2.47;0.70;;;11.70;99.90;;;;;;5106505;28;20486;-70
2022/10/22 02:34:07;;;;;;;2.23;0.70;;;11.70;99.90;;;;;;5109459;28;20839;-70
2022/10/22 02:36:33;;;;;;;2.30;0.60;;;11.80;99.90;;;;;;5109889;28;20917;-70
2022/10/22 02:39:00;;;;;;;1.43;0.80;;;11.80;99.90;;;;;;5110068;28;20921;-70
2022/10/22 02:41:26;;;;;;;1.97;0.70;;;11.80;99.90;;;;;;5110968;22;20580;-70
2022/10/22 02:43:55;;;;;;;1.17;0.50;;;11.70;99.90;;;;;;5092162;28;20930;-70
2022/10/22 02:46:21;;;;;;;2.83;0.83;;;11.80;99.90;;;;;;5089299;28;20853;-70
2022/10/22 02:48:47;;;;;;;1.40;0.60;;;11.80;99.90;;;;;;5083847;28;20414;-70
2022/10/22 02:51:13;;;;;;;1.17;0.50;;;11.80;99.90;;;;;;5089252;28;20448;-70
2022/10/22 02:53:38;;;;;;;1.20;0.50;;;11.80;99.90;;;;;;5086184;28;20252;-70
2022/10/22 02:56:04;;;;;;;1.40;0.60;;;11.90;99.90;;;;;;5084410;28;20219;-70
2022/10/22 02:58:30;;;;;;;4.90;0.50;;;11.90;99.90;;;;;;5079100;28;20196;-70
2022/10/22 03:00:55;;;;;;;1.20;0.60;;;11.90;99.90;;;;;;5080439;28;20439;-70
2022/10/22 03:03:21;;;;;;;2.43;0.87;;;11.90;99.90;;;;;;5069820;28;20185;-70
2022/10/22 03:05:47;;;;;;;2.30;0.60;;;11.90;99.90;;;;;;5087450;28;20231;-70
2022/10/22 03:08:12;;;;;;;1.50;0.70;;;11.90;99.90;;;;;;5091898;28;20245;-70
2022/10/22 03:10:38;;;;;;;1.20;0.50;;;11.80;99.90;;;;;;5085545;28;20209;-69
2022/10/22 03:13:03;;;;;;;1.20;0.60;;;11.80;99.90;;;;;;5077716;28;20203;-69
2022/10/22 03:15:29;;;;;;;1.67;0.80;;;11.80;99.90;;;;;;5084618;28;20188;-69
2022/10/22 03:17:54;;;;;;;1.50;0.60;;;11.80;99.90;;;;;;5082377;28;20188;-69
2022/10/22 03:20:20;;;;;;;4.23;0.70;;;11.70;99.90;;;;;;5077839;28;20185;-69
2022/10/22 03:22:46;;;;;;;1.40;0.70;;;11.80;99.90;;;;;;5092966;28;20210;-69
2022/10/22 03:25:18;;;;;;;1.40;0.60;;;11.70;99.90;;;;;;5069007;28;20209;-69
2022/10/22 03:27:44;;;;;;;2.27;1.13;;;11.70;99.90;;;;;;5086713;28;20177;-69
2022/10/22 03:30:10;;;;;;;1.30;0.60;;;11.70;99.90;;;;;;5092349;28;20434;-68
2022/10/22 03:32:36;;;;;;;1.43;0.60;;;11.70;99.90;;;;;;5086189;28;20435;-69
2022/10/22 03:35:02;;;;;;;1.30;0.60;;;11.80;99.90;;;;;;5088404;28;21027;-69
2022/10/22 03:37:27;;;;;;;2.47;0.93;;;11.70;99.90;;;;;;5092187;28;20629;-69
2022/10/22 03:39:54;;;;;;;1.80;0.60;;;11.70;99.90;;;;;;5094143;28;20212;-68
2022/10/22 03:42:20;;;;;;;1.20;0.60;;;11.70;99.90;;;;;;5090132;28;20201;-69
2022/10/22 03:44:46;;;;;;;1.10;0.50;;;11.70;99.90;;;;;;5109559;28;20514;-67
2022/10/22 03:47:12;;;;;;;1.40;0.60;;;11.70;99.90;;;;;;5114708;28;20441;-67
2022/10/22 03:49:37;;;;;;;1.20;0.50;;;11.70;99.90;;;;;;5104188;28;20193;-68
2022/10/22 03:52:08;;;;;;;1.83;0.60;;;11.70;99.90;;;;;;5095331;28;20528;-68
2022/10/22 03:54:34;;;;;;;1.30;0.57;;;11.70;99.90;;;;;;5099580;28;20192;-67
2022/10/22 03:57:00;;;;;;;1.37;0.50;;;11.70;99.90;;;;;;5075272;28;20447;-67
2022/10/22 03:59:26;;;;;;;1.63;0.50;;;11.70;99.90;;;;;;5081047;28;20512;-67
2022/10/22 04:01:51;;;;;;;1.17;0.50;;;11.80;99.90;;;;;;5078548;28;20189;-67
2022/10/22 04:04:17;;;;;;;1.30;0.73;;;11.60;99.90;;;;;;5084458;28;20176;-67
2022/10/22 04:06:42;;;;;;;1.30;0.60;;;11.60;99.90;;;;;;5092541;28;20180;-67
2022/10/22 04:09:08;;;;;;;1.53;0.70;;;11.60;99.90;;;;;;5078179;28;20656;-67
2022/10/22 04:11:34;;;;;;;1.30;0.57;;;11.60;99.90;;;;;;5086253;28;20176;-67
2022/10/22 04:13:59;;;;;;;1.73;0.80;;;11.60;99.90;;;;;;5095338;28;20184;-68
2022/10/22 04:16:29;;;;;;;1.20;0.60;;;11.50;99.90;;;;;;5092570;28;20185;-68
2022/10/22 04:18:56;;;;;;;1.43;0.60;;;11.50;99.90;;;;;;5082159;28;20250;-67
2022/10/22 04:21:22;;;;;;;1.60;0.60;;;11.50;99.90;;;;;;5090952;28;20452;-67
2022/10/22 04:23:50;;;;;;;7.13;0.87;;;11.60;99.90;;;;;;5085433;28;20446;-67
2022/10/22 04:26:17;;;;;;;1.40;0.70;;;11.60;99.90;;;;;;5091294;28;20508;-67
2022/10/22 04:28:43;;;;;;;1.43;0.50;;;11.60;99.90;;;;;;5089017;28;20438;-67
2022/10/22 04:31:14;;;;;;;1.30;0.50;;;11.50;99.90;;;;;;5086973;28;20425;-67
2022/10/22 04:33:41;;;;;;;1.20;0.60;;;11.50;99.90;;;;;;5093228;28;20444;-67
2022/10/22 04:36:16;;;;;;;2.40;0.90;;;11.50;99.90;;;;;;5094920;28;20417;-67
2022/10/22 04:38:44;;;;;;;1.70;0.80;;;11.50;99.90;;;;;;5083351;28;20529;-67
2022/10/22 04:41:21;;;;;;;1.83;0.60;;;11.50;99.90;;;;;;5093312;28;20479;-67
2022/10/22 04:43:48;;;;;;;1.33;0.73;;;11.50;99.90;;;;;;5084089;28;20438;-67
2022/10/22 04:46:15;;;;;;;1.73;0.60;;;11.40;99.90;;;;;;5091063;28;20480;-67
2022/10/22 04:48:42;;;;;;;1.43;0.67;;;11.40;99.90;;;;;;5080812;28;20522;-67
2022/10/22 04:51:11;;;;;;;1.30;0.50;;;11.40;99.90;;;;;;5090947;28;20434;-67
2022/10/22 04:53:36;;;;;;;1.10;0.50;;;11.40;99.90;;;;;;5085718;28;20438;-67
2022/10/22 04:56:10;;;;;;;1.60;0.60;;;11.40;99.90;;;;;;5092395;28;20437;-67
2022/10/22 04:58:37;;;;;;;1.20;0.50;;;11.40;99.90;;;;;;5081871;28;20276;-67
2022/10/22 05:01:20;;;;;;;1.13;0.50;;;11.40;99.90;;;;;;5087566;28;20928;-67
2022/10/22 05:03:48;;;;;;;1.20;0.50;;;11.40;99.90;;;;;;5082640;28;20493;-67
2022/10/22 05:06:14;;;;;;;2.07;0.90;;;11.40;99.90;;;;;;5090701;28;20466;-67
2022/10/22 05:08:40;;;;;;;1.43;0.70;;;11.40;99.90;;;;;;5076329;28;20430;-67
2022/10/22 05:11:11;;;;;;;1.50;0.57;;;11.30;99.90;;;;;;5087353;28;20822;-67
2022/10/22 05:13:36;;;;;;;1.23;0.60;;;11.30;99.90;;;;;;5083032;28;20193;-67
2022/10/22 05:16:02;;;;;;;1.27;0.50;;;11.30;99.90;;;;;;5093791;28;20445;-67
2022/10/22 05:18:27;;;;;;;1.40;0.53;;;11.30;99.90;;;;;;5082690;28;20268;-67
2022/10/22 05:20:53;;;;;;;1.30;0.60;;;11.20;99.90;;;;;;5075823;28;20187;-68
2022/10/22 05:23:18;;;;;;;1.60;0.80;;;11.30;99.90;;;;;;5080634;28;20584;-67
2022/10/22 05:25:44;;;;;;;1.20;0.53;;;11.30;99.90;;;;;;5088703;28;20204;-68
2022/10/22 05:28:10;;;;;;;1.50;0.70;;;11.30;99.90;;;;;;5072233;28;20189;-67
2022/10/22 05:30:35;;;;;;;1.20;0.60;;;11.30;99.90;;;;;;5089321;28;20177;-67
2022/10/22 05:33:01;;;;;;;1.13;0.47;;;11.30;99.90;;;;;;5091919;28;20241;-68
2022/10/22 05:35:26;;;;;;;1.70;0.70;;;11.30;99.90;;;;;;5094614;28;20188;-68
2022/10/22 05:37:52;;;;;;;1.40;0.57;;;11.30;99.90;;;;;;5091958;28;20854;-67
2022/10/22 05:40:17;;;;;;;1.20;0.60;;;11.30;99.90;;;;;;5068888;28;20189;-67
2022/10/22 05:42:43;;;;;;;1.10;0.50;;;11.30;99.90;;;;;;5091269;28;20200;-68
2022/10/22 05:45:09;;;;;;;1.30;0.70;;;11.30;99.90;;;;;;5084677;28;20220;-68
2022/10/22 05:47:34;;;;;;;1.20;0.50;;;11.40;99.90;;;;;;5083499;28;20575;-67
2022/10/22 05:50:00;;;;;;;2.23;0.60;;;11.30;99.90;;;;;;5070715;28;20318;-68
2022/10/22 05:52:26;;;;;;;1.10;0.50;;;11.30;99.90;;;;;;5086182;28;20223;-68
2022/10/22 05:54:51;;;;;;;4.50;0.73;;;11.30;99.90;;;;;;5093359;28;20207;-68
2022/10/22 05:57:18;;;;;;;1.40;0.70;;;11.30;99.90;;;;;;5091146;28;20203;-68
2022/10/22 05:59:43;;;;;;;1.40;0.60;;;11.40;99.90;;;;;;5078246;28;20207;-67
2022/10/22 06:02:09;;;;;;;2.90;1.00;;;11.40;99.90;;;;;;5066654;28;20446;-68
2022/10/22 06:04:34;;;;;;;1.10;0.50;;;11.40;99.90;;;;;;5090053;28;20295;-68
2022/10/22 06:07:01;;;;;;;1.30;0.60;;;11.40;99.90;;;;;;5085275;28;20181;-68
2022/10/22 06:09:27;;;;;;;2.03;0.80;;;11.50;99.90;;;;;;5082708;28;20188;-68
2022/10/22 06:11:53;;;;;;;1.73;0.50;;;11.50;99.90;;;;;;5089617;28;20446;-67
2022/10/22 06:14:20;;;;;;;1.50;0.60;;;11.50;99.90;;;;;;5093849;28;20183;-67
2022/10/22 06:16:46;;;;;;;1.60;0.87;;;11.60;99.90;;;;;;5100597;28;20422;-68
2022/10/22 06:19:13;;;;;;;1.60;0.70;;;11.60;99.90;;;;;;5091157;28;20955;-68
2022/10/22 06:21:39;;;;;;;7.63;0.80;;;11.60;99.90;;;;;;5086850;28;20256;-68
2022/10/22 06:24:05;;;;;;;1.50;0.60;;;11.60;99.90;;;;;;5086001;28;20525;-68
2022/10/22 06:26:30;;;;;;;1.87;0.80;;;11.70;99.90;;;;;;5085479;28;20535;-68
2022/10/22 06:28:56;;;;;;;1.30;0.60;;;11.70;99.90;;;;;;5088811;28;20506;-68
2022/10/22 06:31:23;;;;;;;1.23;0.60;;;11.80;99.90;;;;;;5085794;28;20184;-68
2022/10/22 06:33:49;;;;;;;1.63;0.80;;;11.80;99.90;;;;;;5091536;28;20430;-68
2022/10/22 06:36:17;;;;;;;1.30;0.60;;;11.80;99.90;;;;;;5083581;28;20948;-68
2022/10/22 06:38:43;;;;;;;1.67;0.90;;;11.80;99.90;;;;;;5080882;28;20177;-68
2022/10/22 06:41:11;;;;;;;1.30;0.60;;;11.80;99.90;;;;;;5078688;28;20911;-68
2022/10/22 06:43:37;;;;;;;1.20;0.50;;;11.80;99.90;;;;;;5083920;28;20679;-68
2022/10/22 06:46:06;;;;;;;1.20;0.50;;;11.90;99.90;;;;;;5085922;28;20462;-68
2022/10/22 06:48:32;;;;;;;1.40;0.60;;;11.90;99.90;;;;;;5080716;28;20201;-67
2022/10/22 06:51:09;;;;;;;1.20;0.60;;;11.90;99.90;;;;;;5085655;28;20414;-68
2022/10/22 06:53:35;;;;;;;1.90;0.70;;;11.90;99.90;;;;;;5083781;28;20480;-67
2022/10/22 06:56:09;;;;;;;1.30;0.53;;;11.90;99.90;;;;;;5091264;28;20497;-68
2022/10/22 06:58:35;;;;;;;1.57;0.73;;;11.90;99.90;;;;;;5091972;28;20403;-68
2022/10/22 07:01:06;;;;;;;3.87;0.87;;;12.00;99.90;;;;;;5078285;28;20545;-68
2022/10/22 07:03:31;;;;;;;1.50;0.60;;;12.00;99.90;;;;;;5076905;28;20430;-67
2022/10/22 07:06:02;;;;;;;1.10;0.50;;;12.00;99.90;;;;;;5084828;28;20466;-66
2022/10/22 07:08:28;;;;;;;1.93;0.60;;;12.10;99.90;;;;;;5084233;28;20191;-67
2022/10/22 07:10:54;;;;;;;1.27;0.60;;;12.10;99.90;;;;;;5092042;28;20417;-67
2022/10/22 07:13:20;;;;;;;1.20;0.60;;;12.10;99.90;;;;;;5090828;28;20844;-67
2022/10/22 07:15:52;;;;;;;1.83;0.70;;;12.10;99.90;;;;;;5081605;28;20967;-66
2022/10/22 07:18:17;;;;;;;1.40;0.60;;;12.20;99.90;;;;;;5090114;28;20183;-67
2022/10/22 07:20:43;;;;;;;1.20;0.60;;;12.20;99.90;;;;;;5087761;28;20521;-67
2022/10/22 07:23:08;;;;;;;1.80;0.50;;;12.20;99.90;;;;;;5077247;28;20232;-68
2022/10/22 07:25:34;;;;;;;1.30;0.60;;;12.20;99.90;;;;;;5070565;28;20553;-67
2022/10/22 07:27:59;;;;;;;1.27;0.60;;;12.20;99.90;;;;;;5076656;28;20268;-67
2022/10/22 07:30:25;;;;;;;1.87;0.70;;;12.30;99.90;;;;;;5090253;28;20181;-67
2022/10/22 07:32:51;;;;;;;2.27;0.90;;;12.30;99.90;;;;;;5065105;28;20188;-66
2022/10/22 07:35:16;;;;;;;1.97;1.00;;;12.30;99.90;;;;;;5066476;28;20181;-66
2022/10/22 07:37:42;;;;;;;1.97;0.70;;;12.30;99.90;;;;;;5081607;28;20215;-68
2022/10/22 07:40:08;;;;;;;1.60;0.60;;;12.40;99.90;;;;;;5090081;28;20544;-68
2022/10/22 07:42:34;;;;;;;1.20;0.50;;;12.40;99.90;;;;;;5084459;28;20192;-67
2022/10/22 07:45:00;;;;;;;1.50;0.70;;;12.40;99.90;;;;;;5090634;28;20950;-68
2022/10/22 07:47:25;;;;;;;1.70;0.80;;;12.40;99.90;;;;;;5071289;28;20188;-68
2022/10/22 07:49:51;;;;;;;1.43;0.80;;;12.50;99.90;;;;;;5088662;28;21020;-67
2022/10/22 07:52:17;;;;;;;1.40;0.60;;;12.50;99.90;;;;;;5087582;28;20234;-67
2022/10/22 07:54:43;;;;;;;2.60;0.83;;;12.50;99.90;;;;;;5086225;28;20176;-67
2022/10/22 07:57:08;;;;;;;1.83;0.80;;;12.50;99.90;;;;;;5075000;28;20514;-68
2022/10/22 07:59:34;;;;;;;2.10;0.60;;;12.60;99.90;;;;;;5082378;28;20176;-67
2022/10/22 08:01:59;;;;;;;1.40;0.70;;;12.70;99.90;;;;;;5083555;28;20220;-67
2022/10/22 08:04:25;;;;;;;1.60;0.80;;;12.70;99.90;;;;;;5077290;28;20188;-68
2022/10/22 08:06:50;;;;;;;1.40;0.60;;;12.80;99.90;;;;;;5081347;28;20237;-67
2022/10/22 08:09:16;;;;;;;1.40;0.60;;;13.00;99.90;;;;;;5080953;28;20179;-66
2022/10/22 08:11:42;;;;;;;1.40;0.70;;;13.10;99.90;;;;;;5079447;28;20172;-67
2022/10/22 08:14:07;;;;;;;1.73;0.97;;;13.10;99.90;;;;;;5085776;28;20196;-67
2022/10/22 08:16:33;;;;;;;1.80;0.60;;;13.20;99.90;;;;;;5089180;28;20223;-67
2022/10/22 08:18:58;;;;;;;1.30;0.60;;;13.40;99.90;;;;;;5085404;28;20539;-68
2022/10/22 08:21:25;;;;;;;1.47;0.67;;;13.90;99.90;;;;;;5082668;28;20191;-68
2022/10/22 08:23:50;;;;;;;1.40;0.70;;;14.40;99.90;;;;;;5081895;28;20192;-67
2022/10/22 08:26:17;;;;;;;1.40;0.60;;;14.80;99.90;;;;;;5089691;28;20458;-68
2022/10/22 08:28:42;;;;;;;2.13;0.70;;;15.30;99.90;;;;;;5091024;28;20184;-69
2022/10/22 08:31:09;;;;;;;2.53;0.80;;;15.80;99.90;;;;;;5098326;28;20418;-68
2022/10/22 08:33:35;;;;;;;1.30;0.57;;;15.70;99.90;;;;;;5094422;28;20259;-68
2022/10/22 08:36:00;;;;;;;1.97;1.03;;;15.60;99.90;;;;;;5070362;28;20478;-68
2022/10/22 08:38:26;;;;;;;1.50;0.80;;;15.30;99.90;;;;;;5087483;28;20466;-68
2022/10/22 08:40:57;;;;;;;1.43;0.60;;;15.50;99.90;;;;;;5091266;28;20187;-68
2022/10/22 08:43:34;;;;;;;5.00;0.80;;;15.50;99.90;;;;;;5090629;28;20653;-69
2022/10/22 08:46:29;;;;;;;1.50;0.70;;;15.70;99.90;;;;;;5083519;28;20471;-67
2022/10/22 08:48:58;;;;;;;1.40;0.63;;;15.80;99.90;;;;;;5074101;28;20439;-68
2022/10/22 08:51:28;;;;;;;1.90;0.83;;;15.80;99.90;;;;;;5090790;28;20465;-68
2022/10/22 08:54:15;;;;;;;1.90;1.00;;;15.60;99.90;;;;;;5093572;28;20437;-68
2022/10/22 08:56:51;;;;;;;1.47;0.60;;;15.50;99.90;;;;;;5096709;28;20968;-68
2022/10/22 08:59:26;;;;;;;1.60;0.70;;;15.40;99.90;;;;;;5095755;28;20414;-68
2022/10/22 09:01:53;;;;;;;3.20;0.70;;;15.30;99.90;;;;;;5081294;28;20483;-67
2022/10/22 09:04:24;;;;;;;1.87;1.00;;;15.20;99.90;;;;;;5086676;28;20407;-67
2022/10/22 09:06:51;;;;;;;1.30;0.50;;;15.00;99.90;;;;;;5096795;28;20459;-67
2022/10/22 09:09:18;;;;;;;1.53;0.90;;;15.00;99.90;;;;;;5089356;28;20445;-67
2022/10/22 09:11:55;;;;;;;1.90;1.30;;;15.10;99.90;;;;;;5081581;28;20495;-66
2022/10/22 09:14:24;;;;;;;3.07;0.80;;;15.00;99.90;;;;;;5085059;28;20795;-67
2022/10/22 09:16:49;;;;;;;1.93;0.90;;;15.00;99.90;;;;;;5092465;28;20444;-67
2022/10/22 09:19:40;;;;;;;1.47;0.60;;;15.00;99.90;;;;;;5089074;28;20422;-67
2022/10/22 09:22:18;;;;;;;1.50;0.70;;;15.00;99.90;;;;;;5082462;28;20669;-67
2022/10/22 09:24:48;;;;;;;2.70;0.90;;;15.00;99.90;;;;;;5084135;28;20462;-68
2022/10/22 09:27:17;;;;;;;2.43;1.13;;;15.10;99.90;;;;;;5091193;28;20426;-67
2022/10/22 09:29:46;;;;;;;4.43;1.07;;;15.20;99.90;;;;;;5094190;28;20928;-67
2022/10/22 09:32:12;;;;;;;2.67;0.93;;;15.30;99.90;;;;;;5093353;28;20446;-67
2022/10/22 09:34:38;;;;;;;1.70;0.70;;;15.30;99.90;;;;;;5085220;28;20444;-67
2022/10/22 09:37:08;;;;;;;1.47;0.77;;;15.30;99.90;;;;;;5093998;28;20415;-66
2022/10/22 09:39:45;;;;;;;1.90;0.87;;;15.50;99.90;;;;;;5084440;28;20528;-66
2022/10/22 09:42:15;;;;;;;2.67;0.87;;;15.60;99.90;;;;;;5079547;28;20437;-68
2022/10/22 09:44:41;;;;;;;1.57;0.70;;;15.70;99.90;;;;;;5075489;28;20459;-64
2022/10/22 09:47:31;;;;;;;1.33;0.60;;;15.70;99.90;;;;;;5090374;28;20450;-63
2022/10/22 09:50:26;;;;;;;1.50;0.70;;;15.90;99.90;;;;;;5082019;28;20219;-68
2022/10/22 09:53:04;;;;;;;1.43;0.67;;;16.00;99.90;;;;;;5065667;28;20461;-68
2022/10/22 09:55:30;;;;;;;1.80;0.80;;;16.00;99.90;;;;;;5087670;28;20450;-67
2022/10/22 09:57:58;;;;;;;1.63;0.60;;;16.20;99.90;;;;;;5088160;28;20496;-68
2022/10/22 10:00:25;;;;;;;1.47;0.73;;;16.20;99.90;;;;;;5085523;28;20435;-68
2022/10/22 10:02:56;;;;;;;2.30;0.93;;;16.40;99.90;;;;;;5088323;28;20429;-68
2022/10/22 10:05:31;;;;;;;1.80;1.07;;;16.50;99.90;;;;;;5083315;28;20467;-71
2022/10/22 10:07:58;;;;;;;2.00;0.67;;;16.60;99.90;;;;;;5089828;28;20436;-71
2022/10/22 10:10:46;;;;;;;1.60;0.67;;;16.70;99.90;;;;;;5093609;28;20414;-70
2022/10/22 10:13:18;;;;;;;1.87;0.70;;;16.90;99.90;;;;;;5072960;28;20456;-70
2022/10/22 10:16:02;;;;;;;1.40;0.60;;;17.00;99.90;;;;;;5079976;28;20446;-70
2022/10/22 10:18:54;;;;;;;4.23;0.93;;;17.10;99.90;;;;;;5086207;28;20509;-70
2022/10/22 10:21:27;;;;;;;1.97;0.70;;;17.20;99.90;;;;;;5076582;28;20519;-71
2022/10/22 10:23:56;;;;;;;3.43;0.80;;;17.30;99.90;;;;;;5092226;28;20434;-70
2022/10/22 10:26:46;;;;;;;4.23;0.80;;;17.50;99.90;;;;;;5092376;28;20473;-72
2022/10/22 10:29:23;;;;;;;2.17;0.70;;;17.50;99.90;;;;;;5092139;28;20485;-69
2022/10/22 10:32:35;;;;;;;1.60;0.70;;;17.60;99.90;;;;;;5087692;28;20434;-71
2022/10/22 10:35:01;;;;;;;2.70;1.10;;;17.60;99.90;;;;;;5073441;28;20936;-71
2022/10/22 10:37:34;;;;;;;1.60;0.70;;;17.80;99.90;;;;;;5087409;28;20441;-71
2022/10/22 10:40:29;;;;;;;1.30;0.50;;;17.80;99.90;;;;;;5086328;28;20521;-72
2022/10/22 10:43:08;;;;;;;2.47;0.70;;;18.00;99.90;;;;;;5003578;28;20466;-70
2022/10/22 10:46:12;;;;;;;2.90;0.80;;;18.10;99.90;;;;;;5095617;28;20460;-71
2022/10/22 10:49:02;;;;;;;1.60;0.70;;;18.30;99.90;;;;;;5081680;28;20431;-71
2022/10/22 10:51:37;;;;;;;1.97;0.80;;;18.40;99.90;;;;;;5076981;28;20790;-71
2022/10/22 10:54:24;;;;;;;1.80;0.60;;;18.50;99.90;;;;;;5084887;28;20941;-71
2022/10/22 10:57:19;;;;;;;1.50;0.60;;;18.50;99.90;;;;;;5087887;28;20524;-71
2022/10/22 11:00:03;;;;;;;2.70;0.80;;;18.50;99.90;;;;;;5075754;28;20438;-71
2022/10/22 11:02:47;;;;;;;2.87;0.90;;;18.70;99.90;;;;;;5089246;28;20523;-71
2022/10/22 11:05:21;;;;;;;1.30;0.40;;;18.60;99.90;;;;;;5083132;28;20950;-71
2022/10/22 11:07:58;;;;;;;1.40;0.60;;;18.70;99.90;;;;;;5075462;28;20467;-72
2022/10/22 11:10:50;;;;;;;1.80;0.80;;;18.80;99.90;;;;;;5091785;28;20452;-72
2022/10/22 11:13:15;;;;;;;2.13;0.60;;;18.80;99.90;;;;;;5079811;28;20468;-71
2022/10/22 11:15:47;;;;;;;2.07;0.70;;;19.00;99.90;;;;;;5091837;28;20466;-71
2022/10/22 11:18:36;;;;;;;1.67;0.83;;;19.10;99.90;;;;;;5072394;28;20200;-70
2022/10/22 11:21:20;;;;;;;1.80;0.57;;;19.30;99.90;;;;;;5091374;28;20776;-71
2022/10/22 11:24:11;;;;;;;2.27;0.73;;;19.30;99.90;;;;;;5087835;28;20538;-70
2022/10/22 11:26:55;;;;;;;3.00;0.70;;;19.50;99.90;;;;;;5090332;28;20821;-71
2022/10/22 11:29:31;;;;;;;1.87;0.80;;;19.40;99.90;;;;;;5091565;28;20462;-67
2022/10/22 11:32:00;;;;;;;1.40;0.60;;;19.40;99.90;;;;;;5084665;28;20435;-67
2022/10/22 11:34:45;;;;;;;1.40;0.53;;;19.40;99.90;;;;;;5082535;28;20450;-68
2022/10/22 11:37:13;;;;;;;1.73;0.80;;;19.20;99.90;;;;;;5083720;28;20426;-67
2022/10/22 11:39:52;;;;;;;2.53;0.50;;;19.10;99.90;;;;;;5085052;28;20527;-67
2022/10/22 11:42:34;;;;;;;2.50;0.70;;;19.00;99.90;;;;;;5088682;28;20484;-67
2022/10/22 11:45:13;;;;;;;4.70;1.20;;;19.20;99.90;;;;;;5088707;28;20572;-68
2022/10/22 11:48:10;;;;;;;2.47;1.00;;;19.50;99.50;;;;;;5083563;28;20484;-67
2022/10/22 11:50:53;;;;;;;3.43;0.77;;;19.50;99.90;;;;;;5086525;28;20489;-70
2022/10/22 11:53:24;;;;;;;4.90;0.87;;;19.80;99.90;;;;;;5078385;28;20491;-71
2022/10/22 11:55:52;;;;;;;1.93;0.73;;;19.90;99.90;;;;;;5079498;28;20457;-72
2022/10/22 11:58:33;;;;;;;1.40;0.60;;;20.10;99.90;;;;;;5087731;28;21025;-72
2022/10/22 12:01:02;;;;;;;4.47;0.63;;;19.90;99.90;;;;;;5088585;28;20420;-72
2022/10/22 12:03:27;;;;;;;3.10;0.93;;;20.10;99.50;;;;;;5084965;28;20446;-72
2022/10/22 12:06:10;;;;;;;1.50;0.70;;;20.00;99.90;;;;;;5076603;28;20939;-72
2022/10/22 12:09:03;;;;;;;2.63;1.13;;;19.80;99.90;;;;;;5084742;28;20177;-72
2022/10/22 12:11:37;;;;;;;2.70;1.43;;;19.60;99.90;;;;;;5089783;28;20437;-71
2022/10/22 12:14:19;;;;;;;1.30;0.50;;;19.30;99.90;;;;;;5078186;28;20446;-71
2022/10/22 12:16:50;;;;;;;1.70;0.60;;;19.10;99.90;;;;;;5086055;28;20449;-71
2022/10/22 12:19:23;;;;;;;1.60;0.90;;;19.00;99.90;;;;;;5084116;28;20442;-71
2022/10/22 12:22:15;;;;;;;1.40;0.50;;;18.90;99.90;;;;;;5079965;28;20448;-71
2022/10/22 12:24:45;;;;;;;6.70;0.83;;;19.00;99.90;;;;;;5073157;28;20484;-71
2022/10/22 12:27:38;;;;;;;1.50;0.60;;;19.20;99.90;;;;;;5070777;28;20528;-71
2022/10/22 12:30:18;;;;;;;1.70;0.80;;;19.30;99.90;;;;;;5087553;28;20466;-72
2022/10/22 12:32:44;;;;;;;2.00;0.90;;;19.10;99.90;;;;;;5091860;28;20438;-72
2022/10/22 12:35:24;;;;;;;4.17;1.20;;;19.00;99.90;;;;;;5089677;28;20481;-71
2022/10/22 12:38:12;;;;;;;1.93;0.57;;;19.10;99.90;;;;;;5083537;28;20818;-71
2022/10/22 12:40:40;;;;;;;1.30;0.50;;;19.20;99.90;;;;;;5090269;28;20438;-71
2022/10/22 12:43:14;;;;;;;2.23;0.77;;;19.30;99.50;;;;;;5088825;28;21014;-74
2022/10/22 12:45:41;;;;;;;1.87;0.70;;;19.50;98.20;;;;;;5090625;28;20473;-65
2022/10/22 12:48:13;;;;;;;1.80;0.80;;;19.30;97.20;;;;;;5092606;28;20489;-68
2022/10/22 12:50:44;;;;;;;1.50;0.53;;;19.20;98.70;;;;;;5089494;28;20449;-68
2022/10/22 12:53:16;;;;;;;2.10;0.57;;;19.10;98.40;;;;;;5083166;28;20554;-67
2022/10/22 12:55:46;;;;;;;2.40;0.80;;;19.00;99.10;;;;;;5085543;28;20541;-67
2022/10/22 12:58:16;;;;;;;2.13;0.90;;;19.00;99.90;;;;;;5088435;28;20442;-68
2022/10/22 13:00:44;;;;;;;4.60;0.53;;;19.10;99.90;;;;;;5085173;28;20845;-68
2022/10/22 13:03:43;;;;;;;1.40;0.60;;;19.20;99.90;;;;;;5086649;28;20479;-68
2022/10/22 13:06:18;;;;;;;5.17;1.00;;;19.10;99.50;;;;;;5083700;28;20469;-68
2022/10/22 13:08:44;;;;;;;2.20;0.80;;;19.10;99.90;;;;;;5090065;28;20473;-68